Elmwood, WI (54740)

5:59 AM CDT on August 30, 2016 (GMT -0500)
Crystal Cave | | Change Station

Elev 1079 ft 44.83 °N, 92.25 °W | Updated 17 minutes ago

Clear
Clear
64.8 °F
Feels Like 64.8 °F
N
0.0
Wind Variable Wind from NW
Gusts 5.0 mph

Today
High -- | Low -- °F
--% Chance of Precip.
Yesterday
High -- | Low -- °F
Precip. -- in
Pressure 30.12 in
Visibility 10.0 miles
Clouds Clear
Dew Point 62 °F
Humidity 91%
Rainfall 0.15 in
Snow Depth Not available.
6:29 AM 7:48 PM
Waning Crescent, 4% visible
METAR KLUM 301055Z AUTO 00000KT 10SM CLR 19/18 A3012 RMK AO2 T01910177
Pressure 30.12 in
Visibility 10.0 miles
Clouds Clear
Dew Point 62 °F
Humidity 91%
Rainfall 0.15 in
Snow Depth Not available.
6:29 AM 7:48 PM
Waning Crescent, 4% visible
METAR KLUM 301055Z AUTO 00000KT 10SM CLR 19/18 A3012 RMK AO2 T01910177

10-Day Weather Forecast

Almanac

Astronomy

Aug. 30, 2016 Rise Set
Actual Time
Civil Twilight
Nautical Twilight
Astronomical Twilight
Moon
Length of Visible Light
Length of Day
Tomorrow will be .
, % of the Moon is Illuminated

Today's Extremes

State Highs State Lows

Community

WunderPhotos

Upload Photos

1,935,809 photos uploaded!

WunderBlog® & News

Nearby

Air Quality

  Air Quality AQ Index Pollutant
Not available.

Snow Depth

Station Depth Elevation

Earthquake Activity

City Distance Mag. Time & Date
Minimum magnitude displayed is 2.5.

Coastal Water Temperatures

Place Temperature

Stations

Nearby Weather Stations

Station Location Temp. Windchill Dew Point Humidity Wind Precip. Elev Updated Type
                   

Watches & Warnings

There are currently no watches in effect.